Latest Coastal Weather Observations for Yarram Airport

IDV60701

Issued at 10:25 pm EST Wednesday 1 October 2014 (issued every 10 minutes, with the page automatically refreshed every 10 minutes)

About coastal observations | Map of coastal stations | Coastal observations for VIC | Marine services | Other Formats
Station Details ID: 085151 Name: YARRAM AIRPORT Lat: -38.56 Lon: 146.75 Height: 17.9 m
Data from the previous 72 hours. | See also: Recent months at Yarram Airport
Date/Time
EST
Temp

°C
Wind Pressure Rain
since 9am
mm
Weather Cloud Vis
km
Sea
Height
m
Swell
Dir
 
Speed
knots
Gust
knots
hPa Trend Height
m
Period
s
Dir
01/10:00pm 10.2 WNW 10 11 1023.2 - - - - - - - - -
01/09:30pm 10.3 W 11 16 1023.3 - - - - - - - - -
01/09:00pm 10.4 W 11 14 1023.4 - 0.0 - - - - - - -
01/08:30pm 10.3 W 10 15 1023.4 - - - - - - - - -
01/08:00pm 10.0 W 11 15 1023.2 - - - - - - - - -
01/07:30pm 10.5 W 12 17 1023.1 - - - - - - - - -
01/07:00pm 10.0 W 14 21 1022.5 - - - - - - - - -
01/06:30pm 10.5 W 14 17 1022.3 - - - - - - - - -
01/06:00pm 10.9 W 13 17 1022.3 - - - - - - - - -
01/05:30pm 11.7 WSW 13 18 1022.0 - - - - - - - - -
01/05:00pm 11.9 W 16 22 1021.8 - - - - - - - - -
01/04:30pm 12.7 WSW 16 23 1021.7 - - - - - - - - -
01/04:00pm 13.4 WSW 17 25 1021.7 - - - - - - - - -
01/03:30pm 12.8 WSW 20 28 1021.6 - - - - - - - - -
01/03:00pm 13.5 WSW 21 26 1021.4 - - - - - - - - -
01/02:30pm 12.3 W 18 28 1021.4 - - - - - - - - -
01/02:26pm 12.3 W 18 28 1021.2 - - - - - - - - -
01/02:00pm 14.4 WSW 16 21 1020.8 - - - - - - - - -
01/01:30pm 13.1 WSW 17 23 1021.7 - - - - - - - - -
01/01:00pm 13.4 WSW 19 24 1021.5 - - - - - - - - -
01/12:30pm 13.7 SW 19 25 1021.5 - - - - - - - - -
01/12:19pm 13.6 WSW 18 28 1021.6 - - - - - - - - -
01/12:00pm 13.0 W 17 25 1021.6 - - - - - - - - -
01/11:47am 13.6 WSW 18 29 1021.4 - 0.6 - - - - - - -
01/11:30am 11.2 W 18 25 1021.4 - 0.6 - - - - - - -
01/11:00am 12.3 W 15 18 1021.3 - 0.6 - - - - - - -
01/10:39am 11.3 W 15 26 1021.4 - 0.6 - - - - - - -
01/10:30am 10.4 WSW 16 25 1021.4 - 0.6 - - - - - - -
01/10:20am 11.1 W 18 28 1021.4 - 0.4 - - - - - - -
01/10:00am 12.2 W 15 22 1021.1 - 0.4 - - - - - - -
01/09:34am 9.1 W 17 27 1021.2 - 0.4 - - - - - - -
01/09:30am 9.1 WSW 19 27 1021.3 - 0.4 - - - - - - -
01/09:00am 11.1 WSW 16 25 1020.6 - 13.0 - - - - - - -
01/08:30am 11.1 WSW 15 21 1020.2 - 13.0 - - - - - - -
01/08:00am 9.5 WNW 10 14 1019.4 - 13.0 - - - - - - -
01/07:30am 7.3 WSW 17 21 1019.4 - 12.8 - - - - - - -
01/07:00am 8.5 W 14 18 1018.1 - 10.2 - - - - - - -
01/06:30am 7.1 W 11 14 1017.8 - 10.2 - - - - - - -
01/06:00am 7.6 W 15 22 1017.0 - 10.2 - - - - - - -
01/05:30am 7.6 W 13 18 1016.1 - 10.2 - - - - - - -
01/05:00am 6.4 W 9 12 1015.7 - 10.2 - - - - - - -
01/04:30am 7.3 W 14 22 1015.2 - 10.2 - - - - - - -
01/04:00am 6.7 W 13 17 1014.6 - 10.2 - - - - - - -
01/03:30am 7.0 WSW 14 17 1014.5 - 10.0 - - - - - - -
01/03:00am 7.8 W 15 22 1013.6 - 9.4 - - - - - - -
01/02:30am 7.3 WNW 14 20 1013.1 - 9.4 - - - - - - -
01/02:00am 7.4 W 15 21 1012.9 - 9.4 - - - - - - -
01/01:30am 7.2 W 17 24 1012.3 - 9.4 - - - - - - -
01/01:14am 7.6 WNW 17 28 1012.3 - 9.2 - - - - - - -
01/01:00am 7.4 WNW 17 22 1012.1 - 9.2 - - - - - - -
01/12:30am 7.4 W 18 25 1011.9 - 9.2 - - - - - - -
01/12:00am 7.3 WNW 12 16 1011.5 - 9.0 - - - - - - -
 
Date/Time
EST
Temp

°C
Wind Pressure Rain
since 9am
mm
Weather Cloud Vis
km
Sea
Height
m
Swell
Dir
 
Speed
knots
Gust
knots
hPa Trend Height
m
Period
s
Dir
30/11:30pm 7.4 WNW 15 20 1011.5 - 9.0 - - - - - - -
30/11:00pm 7.5 W 23 33 1011.2 - 9.0 - - - - - - -
30/10:52pm 8.0 WSW 22 33 1011.4 - 8.4 - - - - - - -
30/10:46pm 8.2 WSW 20 28 1011.3 - 8.4 - - - - - - -
30/10:30pm 8.5 WNW 16 20 1010.3 - 8.2 - - - - - - -
30/10:00pm 8.4 W 14 19 1010.5 - 8.2 - - - - - - -
30/09:30pm 7.9 WNW 10 13 1010.3 - 8.0 - - - - - - -
30/09:00pm 8.2 W 23 34 1010.3 - 8.0 Rain - - - - - -
30/08:52pm 8.6 WSW 16 30 1010.3 - 7.4 - - - - - - -
30/08:30pm 9.0 W 13 19 1009.7 - 7.4 - - - - - - -
30/08:08pm 9.1 WNW 17 27 1009.1 - 6.8 - - - - - - -
30/08:00pm 9.2 WNW 18 26 1009.0 - 6.6 - - - - - - -
30/07:30pm 9.7 WNW 16 24 1008.5 - 6.2 - - - - - - -
30/07:00pm 9.2 WNW 18 25 1007.6 - 6.2 - - - - - - -
30/06:30pm 8.6 W 18 26 1008.2 - 6.2 - - - - - - -
30/06:00pm 8.9 WNW 22 27 1007.6 - 4.8 Recent precip. - - - - - -
30/05:30pm 9.2 W 25 36 1006.9 - 4.2 - - - - - - -
30/05:00pm 10.4 WSW 26 40 1005.2 - 4.0 - - - - - - -
30/04:30pm 11.1 WSW 29 41 1003.9 - 4.0 - - - - - - -
30/04:05pm 14.0 W 25 41 1002.1 - 0.8 - - - - - - -
30/04:03pm 16.2 WSW 23 30 1001.8 - 0.2 - - - - - - -
30/04:00pm 17.6 W 17 27 1001.1 - 0.0 - - - - - - -
30/03:54pm 18.1 WNW 17 22 1000.1 - 0.0 - - - - - - -
30/03:30pm 21.0 NNW 23 34 999.5 - 0.0 - - - - - - -
30/03:00pm 21.8 NW 25 36 999.9 - 0.0 - - - - - - -
30/02:30pm 22.2 NW 21 31 1000.3 - 0.0 - - - - - - -
30/02:06pm 22.4 WNW 23 33 1000.7 - 0.0 - - - - - - -
30/02:00pm 22.2 NW 25 33 1000.8 - 0.0 - - - - - - -
30/01:30pm 22.8 NW 25 35 1001.8 - 0.0 - - - - - - -
30/01:01pm 22.5 NW 21 33 1002.3 - 0.0 - - - - - - -
30/01:00pm 22.4 NW 21 30 1002.3 - 0.0 - - - - - - -
30/12:30pm 20.8 WNW 16 28 1003.0 - 0.0 - - - - - - -
30/12:12pm 20.3 NW 17 27 1003.3 - 0.0 - - - - - - -
30/12:00pm 20.6 NW 17 23 1003.5 - 0.0 - - - - - - -
30/11:30am 21.3 NNW 15 25 1004.2 - 0.0 - - - - - - -
30/11:13am 20.9 NW 19 29 1004.8 - 0.0 - - - - - - -
30/11:00am 20.6 NW 20 29 1005.1 - 0.0 - - - - - - -
30/10:38am 20.4 NW 15 25 1005.9 - 0.0 - - - - - - -
30/10:30am 19.5 NW 15 19 1006.1 - 0.0 - - - - - - -
30/10:00am 19.7 NW 11 16 1006.7 - 0.0 - - - - - - -
30/09:30am 19.1 NW 12 16 1007.2 - 0.0 - - - - - - -
30/09:00am 18.0 NW 14 19 1007.4 - 0.0 - - - - - - -
30/08:30am 15.9 SW 6 8 1008.3 - 0.0 - - - - - - -
30/08:00am 13.4 WSW 4 5 1008.5 - 0.0 - - - - - - -
30/07:30am 12.2 WNW 3 4 1008.4 - 0.0 - - - - - - -
30/07:00am 9.2 W 5 6 1008.6 - 0.0 - - - - - - -
30/06:30am 6.3 WNW 1 7 1008.6 - 0.0 - - - - - - -
30/06:00am 5.5 CALM 0 0 1008.0 - 0.0 - - - - - - -
30/05:30am 6.5 WNW 4 6 1007.8 - 0.0 - - - - - - -
30/05:00am 5.9 N 3 5 1008.0 - 0.0 - - - - - - -
30/04:30am 6.1 NNE 6 7 1007.9 - 0.0 - - - - - - -
30/04:00am 6.8 NE 4 4 1008.3 - 0.0 - - - - - - -
30/03:30am 7.9 NNE 5 6 1008.5 - 0.0 - - - - - - -
30/03:00am 8.8 N 1 4 1008.9 - 0.0 - - - - - - -
30/02:30am 10.1 WNW 2 6 1009.3 - 0.0 - - - - - - -
30/02:00am 10.4 SW 8 11 1009.6 - 0.0 - - - - - - -
30/01:30am 10.9 N 1 5 1009.7 - 0.0 - - - - - - -
30/01:00am 9.6 NNE 4 6 1010.2 - 0.0 - - - - - - -
30/12:30am 10.5 NNE 6 8 1010.6 - 0.0 - - - - - - -
30/12:00am 9.6 NNE 7 9 1011.1 - 0.0 - - - - - - -
 
Date/Time
EST
Temp

°C
Wind Pressure Rain
since 9am
mm
Weather Cloud Vis
km
Sea
Height
m
Swell
Dir
 
Speed
knots
Gust
knots
hPa Trend Height
m
Period
s
Dir
29/11:30pm 9.8 NNE 8 9 1011.5 - 0.0 - - - - - - -
29/11:00pm 11.3 N 7 9 1011.9 - 0.0 - - - - - - -
29/10:30pm 11.7 N 7 10 1011.9 - 0.0 - - - - - - -
29/10:00pm 12.1 N 10 14 1012.0 - 0.0 - - - - - - -
29/09:30pm 12.0 N 10 12 1012.1 - 0.0 - - - - - - -
29/09:00pm 12.3 NNE 11 13 1012.2 - 0.0 - - - - - - -
29/08:30pm 11.7 NNE 9 11 1012.5 - 0.0 - - - - - - -
29/08:00pm 12.2 NE 7 8 1012.4 - 0.0 - - - - - - -
29/07:30pm 12.9 NE 5 7 1012.2 - 0.0 - - - - - - -
29/07:00pm 11.9 NE 8 11 1011.6 - 0.0 - - - - - - -
29/06:30pm 13.4 CALM 0 0 1011.1 - 0.0 - - - - - - -
29/06:00pm 14.6 SW 7 9 1010.7 - 0.0 - - - - - - -
29/05:30pm 16.3 SW 11 14 1010.3 - 0.0 - - - - - - -
29/05:00pm 19.6 W 11 14 1010.0 - 0.0 - - - - - - -
29/04:30pm 20.1 WSW 11 14 1009.7 - 0.0 - - - - - - -
29/04:00pm 20.3 WSW 12 16 1009.6 - 0.0 - - - - - - -
29/03:30pm 20.3 WSW 14 17 1009.8 - 0.0 - - - - - - -
29/03:00pm 20.1 WSW 15 21 1009.8 - 0.0 - - - - - - -
29/02:30pm 20.5 W 12 16 1009.9 - 0.0 - - - - - - -
29/02:00pm 20.2 W 10 14 1010.4 - 0.0 - - - - - - -
29/01:30pm 19.5 W 13 16 1011.0 - 0.0 - - - - - - -
29/01:00pm 19.6 WNW 11 20 1011.2 - 0.0 - - - - - - -
29/12:30pm 19.3 NW 15 17 1011.7 - 0.0 - - - - - - -
29/12:00pm 18.8 WNW 12 19 1012.1 - 0.0 - - - - - - -
29/11:30am 18.2 W 15 20 1012.3 - 0.0 - - - - - - -
29/11:00am 18.0 W 12 16 1012.5 - 0.0 - - - - - - -
29/10:30am 17.5 W 12 18 1012.6 - 0.0 - - - - - - -
29/10:00am 17.0 W 13 17 1012.8 - 0.0 - - - - - - -
29/09:30am 16.2 W 13 18 1012.5 - 0.0 - - - - - - -
29/09:00am 16.1 W 16 21 1012.5 - 0.2 - - - - - - -
29/08:30am 15.6 W 15 20 1012.3 - 0.2 - - - - - - -
29/08:00am 15.2 W 12 19 1011.7 - 0.2 - - - - - - -
29/07:30am 14.6 WNW 15 21 1011.2 - 0.2 - - - - - - -
29/07:00am 13.7 W 10 13 1011.3 - 0.2 - - - - - - -
29/06:30am 13.2 WNW 10 13 1011.0 - 0.2 - - - - - - -
29/06:00am 13.2 WNW 14 20 1010.0 - 0.2 - - - - - - -
29/05:30am 12.9 WNW 13 18 1009.8 - 0.2 - - - - - - -
29/05:00am 13.1 WNW 13 18 1009.8 - 0.2 - - - - - - -
29/04:30am 12.6 W 12 17 1009.1 - 0.2 - - - - - - -
29/04:00am 12.7 WNW 14 20 1008.5 - 0.2 - - - - - - -
29/03:30am 12.7 WNW 13 18 1008.1 - 0.2 - - - - - - -
29/03:00am 13.1 WNW 12 15 1008.4 - 0.2 - - - - - - -
29/02:30am 12.6 WNW 11 15 1008.1 - 0.2 - - - - - - -
29/02:00am 12.7 W 15 21 1008.3 - 0.2 - - - - - - -
29/01:30am 13.8 WSW 14 20 1007.1 - 0.0 - - - - - - -
29/01:00am 14.2 W 12 17 1007.1 - 0.0 - - - - - - -
29/12:30am 15.3 W 11 20 1006.3 - 0.0 - - - - - - -
29/12:00am 15.2 WSW 19 27 1005.8 - 0.0 - - - - - - -
 
Date/Time
EST
Temp

°C
Wind Pressure Rain
since 9am
mm
Weather Cloud Vis
km
Sea
Height
m
Swell
Dir
 
Speed
knots
Gust
knots
hPa Trend Height
m
Period
s
Dir
28/11:30pm 16.0 WSW 14 18 1005.0 - 0.0 - - - - - - -
28/11:00pm 16.4 SW 17 22 1004.5 - 0.0 - - - - - - -
28/10:49pm 17.5 SW 18 23 1004.5 - 0.0 - - - - - - -
28/10:30pm 22.9 NW 14 19 1004.4 - 0.0 - - - - - - -

Other Formats:

Comma delimited format used in spreadsheet applications
http://www.bom.gov.au/fwo/IDV60701/IDV60701.95890.axf

JavaScript Object Notation format (JSON) in row-major order
http://www.bom.gov.au/fwo/IDV60701/IDV60701.95890.json